sensor_id;sensor_type;location;lat;lon;timestamp;P1;durP1;ratioP1;P2;durP2;ratioP2
20318;SDS011;10317;47.254;11.314;2023-08-21T00:00:53;5.82;;;4.18;;
20318;SDS011;10317;47.254;11.314;2023-08-21T00:03:19;7.20;;;4.32;;
20318;SDS011;10317;47.254;11.314;2023-08-21T00:05:45;7.25;;;4.80;;
20318;SDS011;10317;47.254;11.314;2023-08-21T00:08:10;4.38;;;4.00;;
20318;SDS011;10317;47.254;11.314;2023-08-21T00:10:39;4.97;;;4.53;;
20318;SDS011;10317;47.254;11.314;2023-08-21T00:13:06;5.10;;;4.60;;
20318;SDS011;10317;47.254;11.314;2023-08-21T00:15:31;5.75;;;4.32;;
20318;SDS011;10317;47.254;11.314;2023-08-21T00:17:57;4.85;;;3.78;;
20318;SDS011;10317;47.254;11.314;2023-08-21T00:20:23;4.32;;;3.97;;
20318;SDS011;10317;47.254;11.314;2023-08-21T00:22:49;5.25;;;3.90;;
20318;SDS011;10317;47.254;11.314;2023-08-21T00:25:15;8.40;;;3.63;;
20318;SDS011;10317;47.254;11.314;2023-08-21T00:27:40;5.85;;;4.78;;
20318;SDS011;10317;47.254;11.314;2023-08-21T00:30:06;5.28;;;4.60;;
20318;SDS011;10317;47.254;11.314;2023-08-21T00:32:32;4.10;;;3.80;;
20318;SDS011;10317;47.254;11.314;2023-08-21T00:34:58;4.10;;;3.70;;
20318;SDS011;10317;47.254;11.314;2023-08-21T00:37:23;7.00;;;4.53;;
20318;SDS011;10317;47.254;11.314;2023-08-21T00:39:49;4.70;;;4.30;;
20318;SDS011;10317;47.254;11.314;2023-08-21T00:42:15;4.13;;;3.72;;
20318;SDS011;10317;47.254;11.314;2023-08-21T00:44:40;4.18;;;3.78;;
20318;SDS011;10317;47.254;11.314;2023-08-21T00:47:06;6.72;;;3.83;;
20318;SDS011;10317;47.254;11.314;2023-08-21T00:49:32;4.38;;;4.00;;
20318;SDS011;10317;47.254;11.314;2023-08-21T00:51:58;4.40;;;4.10;;
20318;SDS011;10317;47.254;11.314;2023-08-21T00:54:25;5.20;;;4.10;;
20318;SDS011;10317;47.254;11.314;2023-08-21T00:56:50;5.25;;;4.53;;
20318;SDS011;10317;47.254;11.314;2023-08-21T00:59:17;5.05;;;4.38;;
20318;SDS011;10317;47.254;11.314;2023-08-21T01:01:44;5.68;;;4.07;;
20318;SDS011;10317;47.254;11.314;2023-08-21T01:04:10;4.50;;;4.00;;
20318;SDS011;10317;47.254;11.314;2023-08-21T01:06:36;4.97;;;4.53;;
20318;SDS011;10317;47.254;11.314;2023-08-21T01:09:04;4.70;;;4.28;;
20318;SDS011;10317;47.254;11.314;2023-08-21T01:11:35;6.03;;;4.15;;
20318;SDS011;10317;47.254;11.314;2023-08-21T01:14:21;7.50;;;3.67;;
20318;SDS011;10317;47.254;11.314;2023-08-21T01:17:03;4.32;;;4.00;;
20318;SDS011;10317;47.254;11.314;2023-08-21T01:22:06;4.20;;;3.80;;
20318;SDS011;10317;47.254;11.314;2023-08-21T01:24:31;4.75;;;4.35;;
20318;SDS011;10317;47.254;11.314;2023-08-21T01:26:58;4.65;;;4.20;;
20318;SDS011;10317;47.254;11.314;2023-08-21T01:29:24;4.07;;;3.65;;
20318;SDS011;10317;47.254;11.314;2023-08-21T01:34:40;6.72;;;4.43;;
20318;SDS011;10317;47.254;11.314;2023-08-21T01:37:08;5.70;;;4.40;;
20318;SDS011;10317;47.254;11.314;2023-08-21T01:39:34;8.10;;;4.72;;
20318;SDS011;10317;47.254;11.314;2023-08-21T01:42:00;5.28;;;4.00;;
20318;SDS011;10317;47.254;11.314;2023-08-21T01:44:25;4.82;;;4.43;;
20318;SDS011;10317;47.254;11.314;2023-08-21T01:46:52;4.55;;;4.15;;
20318;SDS011;10317;47.254;11.314;2023-08-21T01:49:18;5.78;;;4.43;;
20318;SDS011;10317;47.254;11.314;2023-08-21T01:51:44;5.10;;;4.60;;
20318;SDS011;10317;47.254;11.314;2023-08-21T01:54:10;5.35;;;4.07;;
20318;SDS011;10317;47.254;11.314;2023-08-21T01:56:36;5.72;;;4.25;;
20318;SDS011;10317;47.254;11.314;2023-08-21T01:59:02;6.95;;;4.55;;
20318;SDS011;10317;47.254;11.314;2023-08-21T02:01:29;4.13;;;3.85;;
20318;SDS011;10317;47.254;11.314;2023-08-21T02:03:55;6.28;;;4.60;;
20318;SDS011;10317;47.254;11.314;2023-08-21T02:06:20;5.40;;;3.95;;
20318;SDS011;10317;47.254;11.314;2023-08-21T02:08:46;3.85;;;3.55;;
20318;SDS011;10317;47.254;11.314;2023-08-21T02:11:11;6.18;;;4.38;;
20318;SDS011;10317;47.254;11.314;2023-08-21T02:13:37;4.30;;;3.95;;
20318;SDS011;10317;47.254;11.314;2023-08-21T02:16:03;4.85;;;4.30;;
20318;SDS011;10317;47.254;11.314;2023-08-21T02:18:28;6.30;;;4.72;;
20318;SDS011;10317;47.254;11.314;2023-08-21T02:20:54;4.85;;;4.40;;
20318;SDS011;10317;47.254;11.314;2023-08-21T02:23:20;4.32;;;3.92;;
20318;SDS011;10317;47.254;11.314;2023-08-21T02:25:46;4.78;;;4.38;;
20318;SDS011;10317;47.254;11.314;2023-08-21T02:28:11;5.18;;;4.60;;
20318;SDS011;10317;47.254;11.314;2023-08-21T02:30:40;6.07;;;4.75;;
20318;SDS011;10317;47.254;11.314;2023-08-21T02:33:07;4.20;;;3.80;;
20318;SDS011;10317;47.254;11.314;2023-08-21T02:35:32;4.72;;;4.32;;
20318;SDS011;10317;47.254;11.314;2023-08-21T02:37:58;7.72;;;4.10;;
20318;SDS011;10317;47.254;11.314;2023-08-21T02:40:24;4.85;;;4.40;;
20318;SDS011;10317;47.254;11.314;2023-08-21T02:42:49;6.55;;;4.65;;
20318;SDS011;10317;47.254;11.314;2023-08-21T02:45:15;4.25;;;3.88;;
20318;SDS011;10317;47.254;11.314;2023-08-21T02:47:41;6.43;;;4.18;;
20318;SDS011;10317;47.254;11.314;2023-08-21T02:50:08;7.03;;;4.32;;
20318;SDS011;10317;47.254;11.314;2023-08-21T02:52:34;4.40;;;4.10;;
20318;SDS011;10317;47.254;11.314;2023-08-21T02:55:01;5.50;;;4.00;;
20318;SDS011;10317;47.254;11.314;2023-08-21T02:57:28;5.43;;;4.05;;
20318;SDS011;10317;47.254;11.314;2023-08-21T02:59:54;5.20;;;4.63;;
20318;SDS011;10317;47.254;11.314;2023-08-21T03:02:20;4.97;;;4.47;;
20318;SDS011;10317;47.254;11.314;2023-08-21T03:04:46;5.72;;;4.90;;
20318;SDS011;10317;47.254;11.314;2023-08-21T03:07:12;5.03;;;4.47;;
20318;SDS011;10317;47.254;11.314;2023-08-21T03:09:41;4.45;;;4.13;;
20318;SDS011;10317;47.254;11.314;2023-08-21T03:12:07;6.88;;;3.97;;
20318;SDS011;10317;47.254;11.314;2023-08-21T03:14:33;4.30;;;3.90;;
20318;SDS011;10317;47.254;11.314;2023-08-21T03:16:59;10.23;;;4.65;;
20318;SDS011;10317;47.254;11.314;2023-08-21T03:19:24;4.78;;;4.20;;
20318;SDS011;10317;47.254;11.314;2023-08-21T03:21:50;5.68;;;4.45;;
20318;SDS011;10317;47.254;11.314;2023-08-21T03:24:16;6.05;;;4.47;;
20318;SDS011;10317;47.254;11.314;2023-08-21T03:26:42;7.45;;;4.75;;
20318;SDS011;10317;47.254;11.314;2023-08-21T03:29:09;5.35;;;4.53;;
20318;SDS011;10317;47.254;11.314;2023-08-21T03:31:34;5.13;;;4.68;;
20318;SDS011;10317;47.254;11.314;2023-08-21T03:34:00;5.60;;;4.55;;
20318;SDS011;10317;47.254;11.314;2023-08-21T03:36:26;6.25;;;4.80;;
20318;SDS011;10317;47.254;11.314;2023-08-21T03:38:58;8.35;;;5.00;;
20318;SDS011;10317;47.254;11.314;2023-08-21T03:41:25;6.25;;;4.47;;
20318;SDS011;10317;47.254;11.314;2023-08-21T03:43:51;4.82;;;4.43;;
20318;SDS011;10317;47.254;11.314;2023-08-21T03:46:16;4.50;;;4.07;;
20318;SDS011;10317;47.254;11.314;2023-08-21T03:48:42;4.38;;;3.97;;
20318;SDS011;10317;47.254;11.314;2023-08-21T03:51:07;4.65;;;4.25;;
20318;SDS011;10317;47.254;11.314;2023-08-21T03:53:33;4.47;;;4.07;;
20318;SDS011;10317;47.254;11.314;2023-08-21T03:55:59;6.85;;;4.60;;
20318;SDS011;10317;47.254;11.314;2023-08-21T03:58:24;7.30;;;4.38;;
20318;SDS011;10317;47.254;11.314;2023-08-21T04:00:51;6.78;;;4.88;;
20318;SDS011;10317;47.254;11.314;2023-08-21T04:03:17;4.57;;;3.75;;
20318;SDS011;10317;47.254;11.314;2023-08-21T04:05:43;4.78;;;4.47;;
20318;SDS011;10317;47.254;11.314;2023-08-21T04:08:09;4.68;;;4.32;;
20318;SDS011;10317;47.254;11.314;2023-08-21T04:10:35;7.90;;;4.65;;
20318;SDS011;10317;47.254;11.314;2023-08-21T04:13:00;4.18;;;3.78;;
20318;SDS011;10317;47.254;11.314;2023-08-21T04:15:26;4.63;;;4.13;;
20318;SDS011;10317;47.254;11.314;2023-08-21T04:17:52;6.72;;;4.63;;
20318;SDS011;10317;47.254;11.314;2023-08-21T04:20:19;5.65;;;4.88;;
20318;SDS011;10317;47.254;11.314;2023-08-21T04:22:46;5.35;;;4.78;;
20318;SDS011;10317;47.254;11.314;2023-08-21T04:25:11;4.70;;;4.40;;
20318;SDS011;10317;47.254;11.314;2023-08-21T04:27:37;4.65;;;4.25;;
20318;SDS011;10317;47.254;11.314;2023-08-21T04:30:03;6.68;;;4.28;;
20318;SDS011;10317;47.254;11.314;2023-08-21T04:32:30;4.47;;;4.18;;
20318;SDS011;10317;47.254;11.314;2023-08-21T04:34:56;6.03;;;4.38;;
20318;SDS011;10317;47.254;11.314;2023-08-21T04:37:22;6.68;;;4.47;;
20318;SDS011;10317;47.254;11.314;2023-08-21T04:39:54;7.22;;;4.60;;
20318;SDS011;10317;47.254;11.314;2023-08-21T04:42:20;4.45;;;3.97;;
20318;SDS011;10317;47.254;11.314;2023-08-21T04:44:46;4.88;;;4.40;;
20318;SDS011;10317;47.254;11.314;2023-08-21T04:47:19;6.20;;;4.10;;
20318;SDS011;10317;47.254;11.314;2023-08-21T04:49:51;5.95;;;4.72;;
20318;SDS011;10317;47.254;11.314;2023-08-21T04:52:17;7.40;;;4.35;;
20318;SDS011;10317;47.254;11.314;2023-08-21T04:54:44;10.68;;;4.20;;
20318;SDS011;10317;47.254;11.314;2023-08-21T04:57:09;8.27;;;4.35;;
20318;SDS011;10317;47.254;11.314;2023-08-21T04:59:35;4.72;;;4.32;;
20318;SDS011;10317;47.254;11.314;2023-08-21T05:02:01;4.55;;;4.22;;
20318;SDS011;10317;47.254;11.314;2023-08-21T05:04:27;4.28;;;3.88;;
20318;SDS011;10317;47.254;11.314;2023-08-21T05:06:53;5.55;;;4.28;;
20318;SDS011;10317;47.254;11.314;2023-08-21T05:09:18;6.22;;;4.40;;
20318;SDS011;10317;47.254;11.314;2023-08-21T05:11:44;7.35;;;4.72;;
20318;SDS011;10317;47.254;11.314;2023-08-21T05:14:10;4.70;;;4.35;;
20318;SDS011;10317;47.254;11.314;2023-08-21T05:16:35;5.20;;;4.60;;
20318;SDS011;10317;47.254;11.314;2023-08-21T05:19:01;5.93;;;4.60;;
20318;SDS011;10317;47.254;11.314;2023-08-21T05:21:27;5.25;;;4.00;;
20318;SDS011;10317;47.254;11.314;2023-08-21T05:23:53;4.53;;;4.15;;
20318;SDS011;10317;47.254;11.314;2023-08-21T05:26:19;5.47;;;4.55;;
20318;SDS011;10317;47.254;11.314;2023-08-21T05:28:44;6.47;;;4.65;;
20318;SDS011;10317;47.254;11.314;2023-08-21T05:31:10;4.88;;;4.38;;
20318;SDS011;10317;47.254;11.314;2023-08-21T05:33:36;5.50;;;5.00;;
20318;SDS011;10317;47.254;11.314;2023-08-21T05:36:02;4.50;;;4.10;;
20318;SDS011;10317;47.254;11.314;2023-08-21T05:38:28;5.22;;;4.82;;
20318;SDS011;10317;47.254;11.314;2023-08-21T05:40:53;5.15;;;4.35;;
20318;SDS011;10317;47.254;11.314;2023-08-21T05:43:19;4.82;;;4.43;;
20318;SDS011;10317;47.254;11.314;2023-08-21T05:45:45;5.00;;;4.55;;
20318;SDS011;10317;47.254;11.314;2023-08-21T05:48:10;8.00;;;4.95;;
20318;SDS011;10317;47.254;11.314;2023-08-21T05:50:36;6.25;;;5.10;;
20318;SDS011;10317;47.254;11.314;2023-08-21T05:53:05;9.55;;;5.68;;
20318;SDS011;10317;47.254;11.314;2023-08-21T05:55:31;5.32;;;4.32;;
20318;SDS011;10317;47.254;11.314;2023-08-21T05:57:57;6.10;;;4.68;;
20318;SDS011;10317;47.254;11.314;2023-08-21T06:00:23;4.53;;;4.07;;
20318;SDS011;10317;47.254;11.314;2023-08-21T06:02:49;5.82;;;4.65;;
20318;SDS011;10317;47.254;11.314;2023-08-21T06:05:14;6.00;;;5.45;;
20318;SDS011;10317;47.254;11.314;2023-08-21T06:07:40;8.38;;;5.30;;
20318;SDS011;10317;47.254;11.314;2023-08-21T06:10:07;5.18;;;4.78;;
20318;SDS011;10317;47.254;11.314;2023-08-21T06:12:33;6.90;;;5.60;;
20318;SDS011;10317;47.254;11.314;2023-08-21T06:14:59;6.13;;;5.53;;
20318;SDS011;10317;47.254;11.314;2023-08-21T06:17:26;8.30;;;4.78;;
20318;SDS011;10317;47.254;11.314;2023-08-21T06:19:52;7.03;;;5.13;;
20318;SDS011;10317;47.254;11.314;2023-08-21T06:22:18;5.20;;;4.70;;
20318;SDS011;10317;47.254;11.314;2023-08-21T06:24:43;6.68;;;5.20;;
20318;SDS011;10317;47.254;11.314;2023-08-21T06:27:09;5.30;;;4.82;;
20318;SDS011;10317;47.254;11.314;2023-08-21T06:29:35;7.25;;;5.30;;
20318;SDS011;10317;47.254;11.314;2023-08-21T06:32:02;5.72;;;5.32;;
20318;SDS011;10317;47.254;11.314;2023-08-21T06:34:28;6.13;;;5.63;;
20318;SDS011;10317;47.254;11.314;2023-08-21T06:36:54;8.45;;;5.65;;
20318;SDS011;10317;47.254;11.314;2023-08-21T06:39:19;7.47;;;5.43;;
20318;SDS011;10317;47.254;11.314;2023-08-21T06:41:45;6.45;;;5.78;;
20318;SDS011;10317;47.254;11.314;2023-08-21T06:44:12;7.93;;;5.50;;
20318;SDS011;10317;47.254;11.314;2023-08-21T06:46:37;7.25;;;5.80;;
20318;SDS011;10317;47.254;11.314;2023-08-21T06:49:03;6.13;;;5.57;;
20318;SDS011;10317;47.254;11.314;2023-08-21T06:51:29;10.25;;;5.78;;
20318;SDS011;10317;47.254;11.314;2023-08-21T06:53:54;6.53;;;5.93;;
20318;SDS011;10317;47.254;11.314;2023-08-21T06:56:20;8.52;;;5.88;;
20318;SDS011;10317;47.254;11.314;2023-08-21T06:58:46;6.70;;;5.95;;
20318;SDS011;10317;47.254;11.314;2023-08-21T07:01:11;7.18;;;6.35;;
20318;SDS011;10317;47.254;11.314;2023-08-21T07:03:37;7.05;;;5.72;;
20318;SDS011;10317;47.254;11.314;2023-08-21T07:06:03;7.47;;;5.57;;
20318;SDS011;10317;47.254;11.314;2023-08-21T07:08:28;6.22;;;5.63;;
20318;SDS011;10317;47.254;11.314;2023-08-21T07:10:54;10.30;;;6.00;;
20318;SDS011;10317;47.254;11.314;2023-08-21T07:13:20;6.38;;;5.88;;
20318;SDS011;10317;47.254;11.314;2023-08-21T07:15:46;7.00;;;5.78;;
20318;SDS011;10317;47.254;11.314;2023-08-21T07:18:12;6.63;;;5.30;;
20318;SDS011;10317;47.254;11.314;2023-08-21T07:20:38;6.30;;;5.78;;
20318;SDS011;10317;47.254;11.314;2023-08-21T07:23:04;6.13;;;5.00;;
20318;SDS011;10317;47.254;11.314;2023-08-21T07:25:29;7.80;;;4.97;;
20318;SDS011;10317;47.254;11.314;2023-08-21T07:27:56;6.70;;;5.95;;
20318;SDS011;10317;47.254;11.314;2023-08-21T07:30:21;6.40;;;5.70;;
20318;SDS011;10317;47.254;11.314;2023-08-21T07:32:47;7.70;;;5.05;;
20318;SDS011;10317;47.254;11.314;2023-08-21T07:35:13;6.55;;;5.95;;
20318;SDS011;10317;47.254;11.314;2023-08-21T07:37:39;9.55;;;6.35;;
20318;SDS011;10317;47.254;11.314;2023-08-21T07:40:08;6.28;;;5.68;;
20318;SDS011;10317;47.254;11.314;2023-08-21T07:42:34;6.53;;;5.78;;
20318;SDS011;10317;47.254;11.314;2023-08-21T07:44:59;9.07;;;6.03;;
20318;SDS011;10317;47.254;11.314;2023-08-21T07:47:28;5.72;;;5.22;;
20318;SDS011;10317;47.254;11.314;2023-08-21T07:49:54;8.70;;;6.57;;
20318;SDS011;10317;47.254;11.314;2023-08-21T07:52:21;7.32;;;6.63;;
20318;SDS011;10317;47.254;11.314;2023-08-21T07:54:47;8.23;;;5.93;;
20318;SDS011;10317;47.254;11.314;2023-08-21T07:57:16;7.05;;;6.32;;
20318;SDS011;10317;47.254;11.314;2023-08-21T07:59:42;11.00;;;7.05;;
20318;SDS011;10317;47.254;11.314;2023-08-21T08:02:08;10.25;;;6.38;;
20318;SDS011;10317;47.254;11.314;2023-08-21T08:04:36;6.82;;;6.10;;
20318;SDS011;10317;47.254;11.314;2023-08-21T08:07:02;6.07;;;5.57;;
20318;SDS011;10317;47.254;11.314;2023-08-21T08:09:28;7.43;;;5.53;;
20318;SDS011;10317;47.254;11.314;2023-08-21T08:11:53;7.50;;;5.88;;
20318;SDS011;10317;47.254;11.314;2023-08-21T08:14:19;6.05;;;5.40;;
20318;SDS011;10317;47.254;11.314;2023-08-21T08:16:45;9.30;;;6.50;;
20318;SDS011;10317;47.254;11.314;2023-08-21T08:19:11;7.45;;;6.30;;
20318;SDS011;10317;47.254;11.314;2023-08-21T08:21:36;7.63;;;6.40;;
20318;SDS011;10317;47.254;11.314;2023-08-21T08:24:02;8.00;;;6.10;;
20318;SDS011;10317;47.254;11.314;2023-08-21T08:26:28;8.77;;;6.30;;
20318;SDS011;10317;47.254;11.314;2023-08-21T08:28:54;9.02;;;7.20;;
20318;SDS011;10317;47.254;11.314;2023-08-21T08:31:20;14.75;;;6.10;;
20318;SDS011;10317;47.254;11.314;2023-08-21T08:33:45;8.65;;;6.50;;
20318;SDS011;10317;47.254;11.314;2023-08-21T08:36:13;12.18;;;6.45;;
20318;SDS011;10317;47.254;11.314;2023-08-21T08:38:39;13.15;;;5.95;;
20318;SDS011;10317;47.254;11.314;2023-08-21T08:41:10;17.92;;;6.50;;
20318;SDS011;10317;47.254;11.314;2023-08-21T08:43:40;15.65;;;6.65;;
20318;SDS011;10317;47.254;11.314;2023-08-21T08:46:07;13.20;;;6.18;;
20318;SDS011;10317;47.254;11.314;2023-08-21T08:48:35;12.43;;;6.35;;
20318;SDS011;10317;47.254;11.314;2023-08-21T08:51:01;11.02;;;4.97;;
20318;SDS011;10317;47.254;11.314;2023-08-21T08:53:29;11.80;;;5.38;;
20318;SDS011;10317;47.254;11.314;2023-08-21T08:55:55;11.38;;;5.70;;
20318;SDS011;10317;47.254;11.314;2023-08-21T08:58:22;20.80;;;7.38;;
20318;SDS011;10317;47.254;11.314;2023-08-21T09:00:48;19.25;;;7.00;;
20318;SDS011;10317;47.254;11.314;2023-08-21T09:03:13;15.85;;;6.55;;
20318;SDS011;10317;47.254;11.314;2023-08-21T09:05:40;18.58;;;7.22;;
20318;SDS011;10317;47.254;11.314;2023-08-21T09:10:32;14.90;;;6.95;;
20318;SDS011;10317;47.254;11.314;2023-08-21T09:12:57;18.27;;;7.40;;
20318;SDS011;10317;47.254;11.314;2023-08-21T09:15:29;15.18;;;7.13;;
20318;SDS011;10317;47.254;11.314;2023-08-21T09:17:55;16.88;;;6.68;;
20318;SDS011;10317;47.254;11.314;2023-08-21T09:20:21;14.35;;;7.15;;
20318;SDS011;10317;47.254;11.314;2023-08-21T09:22:53;14.75;;;7.00;;
20318;SDS011;10317;47.254;11.314;2023-08-21T09:25:20;21.60;;;8.95;;
20318;SDS011;10317;47.254;11.314;2023-08-21T09:27:46;13.93;;;7.15;;
20318;SDS011;10317;47.254;11.314;2023-08-21T09:30:17;12.38;;;7.78;;
20318;SDS011;10317;47.254;11.314;2023-08-21T09:32:56;13.48;;;7.00;;
20318;SDS011;10317;47.254;11.314;2023-08-21T09:35:25;13.73;;;7.32;;
20318;SDS011;10317;47.254;11.314;2023-08-21T09:37:51;11.57;;;6.28;;
20318;SDS011;10317;47.254;11.314;2023-08-21T09:40:18;14.82;;;6.70;;
20318;SDS011;10317;47.254;11.314;2023-08-21T09:42:44;11.07;;;6.80;;
20318;SDS011;10317;47.254;11.314;2023-08-21T09:45:10;15.43;;;7.53;;
20318;SDS011;10317;47.254;11.314;2023-08-21T09:47:36;16.08;;;6.55;;
20318;SDS011;10317;47.254;11.314;2023-08-21T09:50:04;14.60;;;7.05;;
20318;SDS011;10317;47.254;11.314;2023-08-21T09:52:30;10.60;;;7.10;;
20318;SDS011;10317;47.254;11.314;2023-08-21T09:54:56;12.18;;;7.05;;
20318;SDS011;10317;47.254;11.314;2023-08-21T09:57:22;18.13;;;7.55;;
20318;SDS011;10317;47.254;11.314;2023-08-21T09:59:52;12.90;;;6.97;;
20318;SDS011;10317;47.254;11.314;2023-08-21T10:02:20;13.43;;;7.65;;
20318;SDS011;10317;47.254;11.314;2023-08-21T10:04:47;11.02;;;7.05;;
20318;SDS011;10317;47.254;11.314;2023-08-21T10:07:15;24.42;;;8.10;;
20318;SDS011;10317;47.254;11.314;2023-08-21T10:09:44;14.10;;;7.60;;
20318;SDS011;10317;47.254;11.314;2023-08-21T10:12:10;18.15;;;6.63;;
20318;SDS011;10317;47.254;11.314;2023-08-21T10:14:40;10.15;;;7.38;;
20318;SDS011;10317;47.254;11.314;2023-08-21T10:17:07;17.20;;;6.97;;
20318;SDS011;10317;47.254;11.314;2023-08-21T10:19:33;15.23;;;7.63;;
20318;SDS011;10317;47.254;11.314;2023-08-21T10:22:00;10.77;;;6.53;;
20318;SDS011;10317;47.254;11.314;2023-08-21T10:24:26;12.07;;;7.47;;
20318;SDS011;10317;47.254;11.314;2023-08-21T10:26:53;17.10;;;6.57;;
20318;SDS011;10317;47.254;11.314;2023-08-21T10:29:25;14.77;;;8.10;;
20318;SDS011;10317;47.254;11.314;2023-08-21T10:32:01;13.05;;;6.32;;
20318;SDS011;10317;47.254;11.314;2023-08-21T10:34:32;10.45;;;6.93;;
20318;SDS011;10317;47.254;11.314;2023-08-21T10:39:29;16.98;;;6.88;;
20318;SDS011;10317;47.254;11.314;2023-08-21T10:42:04;12.52;;;6.45;;
20318;SDS011;10317;47.254;11.314;2023-08-21T10:49:54;15.80;;;7.38;;
20318;SDS011;10317;47.254;11.314;2023-08-21T10:52:28;17.92;;;6.78;;
20318;SDS011;10317;47.254;11.314;2023-08-21T10:54:56;14.45;;;6.72;;
20318;SDS011;10317;47.254;11.314;2023-08-21T10:57:23;20.17;;;6.78;;
20318;SDS011;10317;47.254;11.314;2023-08-21T10:59:51;15.40;;;7.20;;
20318;SDS011;10317;47.254;11.314;2023-08-21T11:02:36;15.70;;;6.90;;
20318;SDS011;10317;47.254;11.314;2023-08-21T11:05:03;16.85;;;6.07;;
20318;SDS011;10317;47.254;11.314;2023-08-21T11:07:30;13.20;;;6.10;;
20318;SDS011;10317;47.254;11.314;2023-08-21T11:10:01;17.67;;;6.68;;
20318;SDS011;10317;47.254;11.314;2023-08-21T11:12:27;12.60;;;6.30;;
20318;SDS011;10317;47.254;11.314;2023-08-21T11:14:53;20.98;;;7.57;;
20318;SDS011;10317;47.254;11.314;2023-08-21T11:17:19;12.77;;;5.70;;
20318;SDS011;10317;47.254;11.314;2023-08-21T11:19:45;14.02;;;6.78;;
20318;SDS011;10317;47.254;11.314;2023-08-21T11:22:11;11.18;;;5.60;;
20318;SDS011;10317;47.254;11.314;2023-08-21T11:27:06;13.23;;;6.30;;
20318;SDS011;10317;47.254;11.314;2023-08-21T11:32:23;14.15;;;7.10;;
20318;SDS011;10317;47.254;11.314;2023-08-21T11:37:19;14.15;;;6.30;;
20318;SDS011;10317;47.254;11.314;2023-08-21T11:39:54;15.68;;;6.68;;
20318;SDS011;10317;47.254;11.314;2023-08-21T11:42:22;15.05;;;6.68;;
20318;SDS011;10317;47.254;11.314;2023-08-21T11:44:54;14.85;;;7.07;;
20318;SDS011;10317;47.254;11.314;2023-08-21T11:47:21;14.45;;;5.82;;
20318;SDS011;10317;47.254;11.314;2023-08-21T11:49:48;10.52;;;5.30;;
20318;SDS011;10317;47.254;11.314;2023-08-21T11:52:21;14.02;;;6.55;;
20318;SDS011;10317;47.254;11.314;2023-08-21T11:54:51;16.55;;;6.65;;
20318;SDS011;10317;47.254;11.314;2023-08-21T11:57:18;6.68;;;5.53;;
20318;SDS011;10317;47.254;11.314;2023-08-21T11:59:51;12.75;;;6.13;;
20318;SDS011;10317;47.254;11.314;2023-08-21T12:02:24;10.60;;;6.07;;
20318;SDS011;10317;47.254;11.314;2023-08-21T12:04:54;11.55;;;6.00;;
20318;SDS011;10317;47.254;11.314;2023-08-21T12:07:27;11.82;;;5.75;;
20318;SDS011;10317;47.254;11.314;2023-08-21T12:09:53;8.63;;;5.30;;
20318;SDS011;10317;47.254;11.314;2023-08-21T12:12:18;15.05;;;5.93;;
20318;SDS011;10317;47.254;11.314;2023-08-21T12:14:44;11.15;;;4.90;;
20318;SDS011;10317;47.254;11.314;2023-08-21T12:17:10;7.85;;;5.35;;
20318;SDS011;10317;47.254;11.314;2023-08-21T12:19:36;9.15;;;6.00;;
20318;SDS011;10317;47.254;11.314;2023-08-21T12:22:02;11.50;;;5.93;;
20318;SDS011;10317;47.254;11.314;2023-08-21T12:24:28;11.43;;;5.43;;
20318;SDS011;10317;47.254;11.314;2023-08-21T12:26:55;7.82;;;4.75;;
20318;SDS011;10317;47.254;11.314;2023-08-21T12:29:21;8.60;;;5.78;;
20318;SDS011;10317;47.254;11.314;2023-08-21T12:31:47;9.25;;;5.70;;
20318;SDS011;10317;47.254;11.314;2023-08-21T12:34:13;10.95;;;5.45;;
20318;SDS011;10317;47.254;11.314;2023-08-21T12:36:38;7.50;;;5.10;;
20318;SDS011;10317;47.254;11.314;2023-08-21T12:39:05;7.07;;;5.40;;
20318;SDS011;10317;47.254;11.314;2023-08-21T12:41:31;7.07;;;4.90;;
20318;SDS011;10317;47.254;11.314;2023-08-21T12:44:01;9.48;;;5.60;;
20318;SDS011;10317;47.254;11.314;2023-08-21T12:46:33;9.48;;;4.95;;
20318;SDS011;10317;47.254;11.314;2023-08-21T12:49:00;9.98;;;5.28;;
20318;SDS011;10317;47.254;11.314;2023-08-21T12:51:26;6.20;;;4.18;;
20318;SDS011;10317;47.254;11.314;2023-08-21T12:53:53;8.40;;;4.80;;
20318;SDS011;10317;47.254;11.314;2023-08-21T12:56:18;10.43;;;4.72;;
20318;SDS011;10317;47.254;11.314;2023-08-21T12:58:45;6.72;;;4.65;;
20318;SDS011;10317;47.254;11.314;2023-08-21T13:01:11;7.93;;;5.03;;
20318;SDS011;10317;47.254;11.314;2023-08-21T13:03:37;8.75;;;4.85;;
20318;SDS011;10317;47.254;11.314;2023-08-21T13:06:03;8.90;;;5.07;;
20318;SDS011;10317;47.254;11.314;2023-08-21T13:08:29;9.50;;;5.20;;
20318;SDS011;10317;47.254;11.314;2023-08-21T13:10:55;10.73;;;4.85;;
20318;SDS011;10317;47.254;11.314;2023-08-21T13:13:21;8.73;;;4.63;;
20318;SDS011;10317;47.254;11.314;2023-08-21T13:15:47;8.02;;;4.65;;
20318;SDS011;10317;47.254;11.314;2023-08-21T13:18:12;10.90;;;5.28;;
20318;SDS011;10317;47.254;11.314;2023-08-21T13:20:40;14.05;;;5.20;;
20318;SDS011;10317;47.254;11.314;2023-08-21T13:23:09;10.70;;;5.53;;
20318;SDS011;10317;47.254;11.314;2023-08-21T13:25:34;13.30;;;5.22;;
20318;SDS011;10317;47.254;11.314;2023-08-21T13:28:01;10.00;;;4.97;;
20318;SDS011;10317;47.254;11.314;2023-08-21T13:30:28;12.85;;;5.28;;
20318;SDS011;10317;47.254;11.314;2023-08-21T13:32:54;10.70;;;5.45;;
20318;SDS011;10317;47.254;11.314;2023-08-21T13:35:20;11.45;;;5.70;;
20318;SDS011;10317;47.254;11.314;2023-08-21T13:37:47;10.77;;;4.63;;
20318;SDS011;10317;47.254;11.314;2023-08-21T13:40:13;10.50;;;5.60;;
20318;SDS011;10317;47.254;11.314;2023-08-21T13:42:42;15.95;;;5.75;;
20318;SDS011;10317;47.254;11.314;2023-08-21T13:45:09;10.40;;;5.00;;
20318;SDS011;10317;47.254;11.314;2023-08-21T13:47:38;8.38;;;4.65;;
20318;SDS011;10317;47.254;11.314;2023-08-21T13:50:08;10.68;;;4.68;;
20318;SDS011;10317;47.254;11.314;2023-08-21T13:52:35;13.25;;;5.25;;
20318;SDS011;10317;47.254;11.314;2023-08-21T13:55:02;13.10;;;5.43;;
20318;SDS011;10317;47.254;11.314;2023-08-21T13:57:29;10.30;;;5.22;;
20318;SDS011;10317;47.254;11.314;2023-08-21T13:59:55;15.43;;;5.28;;
20318;SDS011;10317;47.254;11.314;2023-08-21T14:02:20;12.38;;;5.30;;
20318;SDS011;10317;47.254;11.314;2023-08-21T14:04:48;17.50;;;5.53;;
20318;SDS011;10317;47.254;11.314;2023-08-21T14:07:13;13.45;;;5.20;;
20318;SDS011;10317;47.254;11.314;2023-08-21T14:09:39;13.63;;;4.90;;
20318;SDS011;10317;47.254;11.314;2023-08-21T14:12:05;9.63;;;4.57;;
20318;SDS011;10317;47.254;11.314;2023-08-21T14:14:32;8.63;;;4.95;;
20318;SDS011;10317;47.254;11.314;2023-08-21T14:16:58;10.18;;;4.85;;
20318;SDS011;10317;47.254;11.314;2023-08-21T14:19:24;13.35;;;5.30;;
20318;SDS011;10317;47.254;11.314;2023-08-21T14:21:49;9.65;;;5.18;;
20318;SDS011;10317;47.254;11.314;2023-08-21T14:24:15;18.98;;;5.05;;
20318;SDS011;10317;47.254;11.314;2023-08-21T14:26:41;15.88;;;5.93;;
20318;SDS011;10317;47.254;11.314;2023-08-21T14:29:07;13.55;;;6.10;;
20318;SDS011;10317;47.254;11.314;2023-08-21T14:31:33;15.02;;;5.00;;
20318;SDS011;10317;47.254;11.314;2023-08-21T14:33:58;10.70;;;4.95;;
20318;SDS011;10317;47.254;11.314;2023-08-21T14:36:24;12.88;;;5.50;;
20318;SDS011;10317;47.254;11.314;2023-08-21T14:38:50;12.15;;;5.35;;
20318;SDS011;10317;47.254;11.314;2023-08-21T14:41:16;14.40;;;5.90;;
20318;SDS011;10317;47.254;11.314;2023-08-21T14:43:43;9.38;;;5.45;;
20318;SDS011;10317;47.254;11.314;2023-08-21T14:46:09;11.00;;;5.60;;
20318;SDS011;10317;47.254;11.314;2023-08-21T14:48:35;17.70;;;5.60;;
20318;SDS011;10317;47.254;11.314;2023-08-21T14:51:01;13.93;;;4.68;;